Time;durP1;ratioP1;P1;durP2;ratioP2;P2;SDS_P1;SDS_P2;PMS_P1;PMS_P2;Temp;Humidity;BMP_temperature;BMP_pressure;BME280_temperature;BME280_humidity;BME280_pressure;Samples;Min_cycle;Max_cycle;Signal;HPM_P1;HPM_P2
2022/11/24 00:01:11;;;;;;;35.92;5.30;;;;;;;7.23;100.00;99998.16;5093637;28;20048;-66
2022/11/24 00:03:38;;;;;;;22.60;3.95;;;;;;;7.34;100.00;100005.84;5093768;28;20040;-66
2022/11/24 00:06:07;;;;;;;27.38;4.78;;;;;;;7.30;100.00;100002.69;5092611;28;20043;-66
2022/11/24 00:08:35;;;;;;;26.67;4.28;;;;;;;7.32;100.00;100007.00;5093428;28;20489;-66
2022/11/24 00:11:05;;;;;;;22.23;4.82;;;;;;;7.44;100.00;100003.97;5093165;28;20044;-66
2022/11/24 00:13:33;;;;;;;29.60;4.38;;;;;;;7.39;100.00;100005.41;5093489;28;20554;-66
2022/11/24 00:16:05;;;;;;;26.45;4.70;;;;;;;7.33;100.00;100008.63;5093568;28;20044;-66
2022/11/24 00:18:31;;;;;;;27.77;4.50;;;;;;;7.40;100.00;100007.88;5093651;28;20036;-66
2022/11/24 00:20:58;;;;;;;29.35;4.05;;;;;;;7.42;100.00;100011.22;5091894;28;20040;-66
2022/11/24 00:23:25;;;;;;;28.25;4.75;;;;;;;7.41;100.00;100006.91;5092091;28;20513;-66
2022/11/24 00:25:52;;;;;;;29.48;4.63;;;;;;;7.44;100.00;100009.25;5093073;28;20044;-66
2022/11/24 00:28:18;;;;;;;24.48;4.75;;;;;;;7.47;100.00;100011.56;5093494;28;20052;-66
2022/11/24 00:30:45;;;;;;;26.48;4.55;;;;;;;7.50;100.00;100011.28;5093341;28;20078;-66
2022/11/24 00:33:12;;;;;;;24.13;4.15;;;;;;;7.47;100.00;100011.56;4968288;28;20497;-65
2022/11/24 00:35:38;;;;;;;29.85;4.93;;;;;;;7.38;100.00;100009.84;5093534;28;20113;-65
2022/11/24 00:38:05;;;;;;;29.90;4.90;;;;;;;7.46;100.00;100012.56;4975400;28;20135;-65
2022/11/24 00:40:32;;;;;;;27.02;4.38;;;;;;;7.46;100.00;100015.19;5093100;28;20043;-65
2022/11/24 00:43:00;;;;;;;22.02;4.32;;;;;;;7.55;100.00;100015.25;5091946;28;20044;-65
2022/11/24 00:45:27;;;;;;;26.20;4.93;;;;;;;7.47;100.00;100013.38;5097344;28;20043;-65
2022/11/24 00:47:53;;;;;;;32.50;4.82;;;;;;;7.39;100.00;100021.25;5097182;28;20044;-65
2022/11/24 00:50:20;;;;;;;26.75;4.60;;;;;;;7.39;100.00;100024.69;5097398;28;20060;-67
2022/11/24 00:52:47;;;;;;;36.55;5.15;;;;;;;7.43;100.00;100012.03;5096133;28;20070;-65
2022/11/24 00:55:13;;;;;;;28.60;4.38;;;;;;;7.43;100.00;100025.22;5097081;28;20040;-65
2022/11/24 00:57:40;;;;;;;26.48;4.93;;;;;;;7.40;100.00;100025.53;5096835;28;20070;-65
2022/11/24 01:00:07;;;;;;;29.60;4.63;;;;;;;7.49;99.68;100028.09;5095722;28;20489;-65
2022/11/24 01:02:34;;;;;;;20.50;4.15;;;;;;;7.47;100.00;100023.94;5095735;28;20075;-65
2022/11/24 01:05:02;;;;;;;27.88;4.47;;;;;;;7.47;99.68;100030.03;5096479;28;20044;-65
2022/11/24 01:07:30;;;;;;;29.77;5.03;;;;;;;7.56;98.74;100040.69;5096811;28;20047;-65
2022/11/24 01:09:56;;;;;;;35.78;5.10;;;;;;;7.59;98.59;100040.38;5097056;28;20048;-65
2022/11/24 01:12:23;;;;;;;25.02;4.20;;;;;;;7.62;97.95;100040.91;4967386;28;20044;-65
2022/11/24 01:14:50;;;;;;;29.30;4.97;;;;;;;7.56;98.03;100052.06;5096822;28;20044;-65
2022/11/24 01:17:16;;;;;;;30.00;4.75;;;;;;;7.61;98.51;100052.44;5096878;28;20097;-65
2022/11/24 01:19:46;;;;;;;22.00;4.93;;;;;;;7.62;99.30;100048.84;5096765;28;20117;-65
2022/11/24 01:22:12;;;;;;;33.33;4.90;;;;;;;7.65;97.94;100058.25;5095928;28;20056;-65
2022/11/24 01:24:39;;;;;;;27.17;4.90;;;;;;;7.75;96.78;100053.72;5096745;28;20093;-65
2022/11/24 01:27:06;;;;;;;23.75;4.93;;;;;;;7.76;96.98;100058.00;5096351;28;20036;-66
2022/11/24 01:29:33;;;;;;;31.70;5.07;;;;;;;7.83;96.88;100061.69;5096209;28;20044;-66
2022/11/24 01:32:00;;;;;;;29.23;4.53;;;;;;;7.82;96.58;100054.78;5096825;28;20051;-66
2022/11/24 01:34:27;;;;;;;24.52;4.28;;;;;;;7.82;96.25;100056.56;5095946;28;20044;-65
2022/11/24 01:36:53;;;;;;;28.95;4.95;;;;;;;7.85;97.60;100051.81;5096487;28;20043;-65
2022/11/24 01:39:20;;;;;;;25.67;5.18;;;;;;;7.88;97.16;100053.31;5095954;28;20493;-65
2022/11/24 01:41:47;;;;;;;28.88;4.45;;;;;;;7.84;97.29;100057.22;5096043;28;20040;-65
2022/11/24 01:44:23;;;;;;;27.77;4.88;;;;;;;7.83;96.20;100059.06;5096133;28;20036;-65
2022/11/24 01:46:57;;;;;;;28.30;4.10;;;;;;;7.78;96.96;100065.78;5096078;28;20564;-66
2022/11/24 01:49:31;;;;;;;29.02;4.63;;;;;;;7.82;97.49;100060.06;5096423;28;20054;-65
2022/11/24 01:52:04;;;;;;;24.67;5.03;;;;;;;7.84;97.54;100063.38;5095883;28;20485;-66
2022/11/24 01:54:36;;;;;;;21.80;3.78;;;;;;;7.88;97.18;100064.72;5094658;28;20051;-65
2022/11/24 01:57:11;;;;;;;28.38;4.95;;;;;;;7.85;97.46;100064.19;5095521;28;20066;-65
2022/11/24 01:59:38;;;;;;;27.08;4.22;;;;;;;7.89;97.90;100068.16;5096042;28;20044;-66
2022/11/24 02:02:06;;;;;;;30.88;4.13;;;;;;;7.94;96.33;100076.47;5095619;28;20059;-66
2022/11/24 02:04:34;;;;;;;21.70;3.50;;;;;;;7.98;96.69;100067.25;5095836;28;20038;-65
2022/11/24 02:07:03;;;;;;;28.55;4.45;;;;;;;7.97;96.38;100076.19;5095141;28;20054;-65
2022/11/24 02:09:54;;;;;;;24.10;4.03;;;;;;;7.95;97.15;100078.16;5095853;28;20048;-65
2022/11/24 02:12:23;;;;;;;20.98;3.95;;;;;;;8.03;96.51;100077.38;5095507;28;20048;-65
2022/11/24 02:14:50;;;;;;;30.77;4.30;;;;;;;7.99;96.73;100079.50;5095519;28;20094;-66
2022/11/24 02:17:17;;;;;;;28.77;4.05;;;;;;;8.06;96.40;100080.53;5094350;28;20493;-65
2022/11/24 02:19:55;;;;;;;16.08;3.45;;;;;;;8.08;96.09;100085.66;5095526;28;20489;-65
2022/11/24 02:22:43;;;;;;;29.77;4.20;;;;;;;8.05;97.04;100086.78;5095105;28;20052;-65
2022/11/24 02:25:34;;;;;;;29.83;4.60;;;;;;;8.09;97.20;100087.31;5095350;28;20482;-65
2022/11/24 02:28:06;;;;;;;23.98;3.90;;;;;;;8.11;96.87;100089.81;5095234;28;20490;-65
2022/11/24 02:30:34;;;;;;;30.20;4.05;;;;;;;8.06;96.79;100092.91;5095066;28;20425;-65
2022/11/24 02:33:01;;;;;;;27.30;4.25;;;;;;;8.08;96.73;100090.97;5095001;28;20451;-66
2022/11/24 02:35:28;;;;;;;27.35;4.72;;;;;;;8.06;96.70;100095.56;5095213;28;20119;-66
2022/11/24 02:37:55;;;;;;;28.58;3.60;;;;;;;8.05;95.83;100097.34;5093911;28;20040;-66
2022/11/24 02:40:26;;;;;;;25.35;3.85;;;;;;;8.12;96.78;100094.94;5095050;28;20397;-66
2022/11/24 02:42:56;;;;;;;27.08;4.90;;;;;;;8.20;97.61;100088.88;5094608;28;20500;-66
2022/11/24 02:45:25;;;;;;;31.65;4.20;;;;;;;8.22;98.03;100090.41;5095111;28;20371;-66
2022/11/24 02:47:51;;;;;;;30.80;4.78;;;;;;;8.22;96.28;100090.41;5095042;28;20044;-66
2022/11/24 02:50:19;;;;;;;28.05;5.50;;;;;;;8.25;96.21;100086.59;5095070;28;20117;-66
2022/11/24 02:52:47;;;;;;;25.75;4.47;;;;;;;8.17;96.04;100103.25;5093699;28;20048;-66
2022/11/24 02:55:14;;;;;;;24.73;4.43;;;;;;;8.08;96.31;100099.69;5094987;28;20040;-66
2022/11/24 02:57:41;;;;;;;30.08;5.03;;;;;;;8.20;96.76;100104.72;5094848;28;20040;-66
2022/11/24 03:00:08;;;;;;;41.00;4.70;;;;;;;8.15;96.03;100099.94;5094198;28;20093;-66
2022/11/24 03:02:35;;;;;;;35.28;4.78;;;;;;;8.14;95.87;100087.69;5093414;28;20081;-66
2022/11/24 03:05:01;;;;;;;34.63;4.68;;;;;;;8.17;94.88;100092.66;5094268;28;20097;-66
2022/11/24 03:07:28;;;;;;;33.85;4.05;;;;;;;8.14;95.78;100100.91;5093750;28;20044;-66
2022/11/24 03:09:55;;;;;;;29.15;4.35;;;;;;;8.11;95.44;100103.84;5094532;28;20382;-66
2022/11/24 03:12:21;;;;;;;29.38;4.53;;;;;;;8.16;95.35;100106.03;5094556;28;20126;-66
2022/11/24 03:14:48;;;;;;;36.28;5.18;;;;;;;8.08;94.90;100102.34;5094116;28;20060;-66
2022/11/24 03:17:14;;;;;;;30.25;4.22;;;;;;;8.06;94.71;100108.78;5094524;28;20134;-66
2022/11/24 03:19:41;;;;;;;26.88;4.03;;;;;;;8.07;94.59;100113.88;5094183;28;20048;-66
2022/11/24 03:22:10;;;;;;;40.25;4.43;;;;;;;8.03;94.49;100112.53;5093808;28;20052;-66
2022/11/24 03:24:38;;;;;;;25.05;3.97;;;;;;;8.10;94.70;100119.88;5093329;28;20043;-66
2022/11/24 03:27:04;;;;;;;28.60;4.15;;;;;;;8.10;94.60;100122.50;5093943;28;20036;-66
2022/11/24 03:29:31;;;;;;;31.05;4.60;;;;;;;8.11;94.70;100109.13;5094347;28;20089;-66
2022/11/24 03:31:58;;;;;;;34.05;5.00;;;;;;;8.12;95.45;100117.91;5094370;28;20078;-66
2022/11/24 03:34:25;;;;;;;30.67;4.35;;;;;;;8.17;93.52;100124.38;5093805;28;20074;-66
2022/11/24 03:36:51;;;;;;;27.13;3.47;;;;;;;8.15;92.72;100122.84;5094253;28;20067;-66
2022/11/24 03:39:18;;;;;;;35.05;4.68;;;;;;;8.10;93.39;100125.97;5075933;28;20543;-66
2022/11/24 03:41:45;;;;;;;33.80;4.47;;;;;;;8.17;93.74;100127.00;5093967;28;20058;-66
2022/11/24 03:44:11;;;;;;;26.60;3.78;;;;;;;8.19;92.98;100130.34;5093997;28;20052;-66
2022/11/24 03:46:38;;;;;;;29.45;4.30;;;;;;;8.11;93.67;100122.31;5093647;28;20036;-66
2022/11/24 03:49:05;;;;;;;24.85;3.60;;;;;;;8.16;93.69;100129.81;5093777;28;20044;-66
2022/11/24 03:51:31;;;;;;;29.52;4.88;;;;;;;8.13;94.56;100128.31;5092265;28;20090;-66
2022/11/24 03:53:58;;;;;;;29.17;4.13;;;;;;;8.18;93.66;100125.19;5094081;28;20101;-68
2022/11/24 03:56:25;;;;;;;30.27;4.90;;;;;;;8.16;93.71;100130.63;5093640;28;20052;-68
2022/11/24 03:58:51;;;;;;;33.65;4.00;;;;;;;8.12;93.21;100137.22;5093730;28;20481;-69
2022/11/24 04:01:18;;;;;;;28.42;4.10;;;;;;;8.18;92.47;100141.03;5084229;28;20046;-68
2022/11/24 04:03:45;;;;;;;29.23;3.58;;;;;;;8.20;93.23;100137.25;5073647;28;20033;-68
2022/11/24 04:06:11;;;;;;;28.88;4.25;;;;;;;8.30;92.07;100144.28;5072793;28;20036;-68
2022/11/24 04:08:38;;;;;;;34.92;4.30;;;;;;;8.24;92.48;100148.34;5073356;28;20094;-69
2022/11/24 04:11:05;;;;;;;30.73;5.00;;;;;;;8.18;92.68;100147.16;5073148;28;20124;-68
2022/11/24 04:13:32;;;;;;;29.45;3.50;;;;;;;8.25;92.28;100150.84;5071956;28;20102;-68
2022/11/24 04:15:59;;;;;;;27.27;4.15;;;;;;;8.08;92.86;100141.97;5073353;28;20041;-68
2022/11/24 04:18:25;;;;;;;37.72;4.28;;;;;;;8.13;94.06;100141.53;5073166;28;20051;-68
2022/11/24 04:20:52;;;;;;;25.48;4.10;;;;;;;8.04;94.41;100135.34;5078051;28;20044;-68
2022/11/24 04:23:19;;;;;;;26.60;4.25;;;;;;;8.06;96.61;100135.19;5093030;28;20554;-68
2022/11/24 04:25:46;;;;;;;28.90;3.92;;;;;;;8.13;95.09;100144.16;5093410;28;20149;-68
2022/11/24 04:28:13;;;;;;;33.53;4.60;;;;;;;8.04;96.00;100143.25;5092156;28;20055;-68
2022/11/24 04:30:43;;;;;;;38.25;4.22;;;;;;;8.00;95.52;100147.16;5091908;28;20040;-68
2022/11/24 04:33:10;;;;;;;34.42;4.53;;;;;;;7.95;96.65;100152.09;5093419;28;20054;-68
2022/11/24 04:35:36;;;;;;;29.80;3.90;;;;;;;8.01;96.63;100146.19;5093395;28;20040;-68
2022/11/24 04:38:03;;;;;;;28.05;3.90;;;;;;;8.05;95.01;100146.72;5093414;28;20082;-67
2022/11/24 04:40:30;;;;;;;37.60;4.97;;;;;;;8.03;95.63;100149.50;5093452;28;20043;-68
2022/11/24 04:42:57;;;;;;;30.13;4.20;;;;;;;8.04;94.48;100151.19;5092013;28;20382;-68
2022/11/24 04:45:23;;;;;;;36.50;4.45;;;;;;;8.00;95.64;100148.97;5093259;28;20093;-67
2022/11/24 04:47:50;;;;;;;31.77;3.95;;;;;;;8.02;94.89;100147.88;5093212;28;20048;-67
2022/11/24 04:50:17;;;;;;;25.33;3.97;;;;;;;8.08;94.82;100160.47;5093544;28;20059;-68
2022/11/24 04:52:44;;;;;;;32.55;4.35;;;;;;;7.95;94.96;100157.38;5093185;28;20048;-67
2022/11/24 04:55:11;;;;;;;29.48;4.32;;;;;;;7.95;95.24;100156.53;5093075;28;20044;-68
2022/11/24 04:57:38;;;;;;;31.50;4.47;;;;;;;7.98;94.21;100162.34;5093203;28;20052;-68
2022/11/24 05:00:06;;;;;;;29.33;4.03;;;;;;;7.97;95.58;100173.09;5074740;28;20071;-68
2022/11/24 05:02:33;;;;;;;35.95;4.78;;;;;;;7.96;94.92;100159.03;5092903;28;20447;-67
2022/11/24 05:04:59;;;;;;;37.38;4.35;;;;;;;8.03;95.41;100160.09;5092341;28;20101;-68
2022/11/24 05:07:26;;;;;;;45.90;5.25;;;;;;;8.04;94.69;100152.97;5092178;28;20040;-67
2022/11/24 05:12:40;;;;;;;34.15;4.90;;;;;;;8.18;93.20;100173.56;5092661;28;20062;-67
2022/11/24 05:15:07;;;;;;;38.47;4.53;;;;;;;8.28;92.93;100173.50;5092332;28;20229;-67
2022/11/24 05:17:37;;;;;;;36.28;4.88;;;;;;;8.23;92.99;100175.78;5091669;28;20052;-68
2022/11/24 05:20:05;;;;;;;28.60;4.35;;;;;;;8.29;92.77;100182.25;5092628;28;20044;-68
2022/11/24 05:22:32;;;;;;;29.23;4.50;;;;;;;8.36;92.01;100186.78;5092437;28;20051;-68
2022/11/24 05:24:58;;;;;;;34.53;4.78;;;;;;;8.39;91.86;100190.94;5092739;28;20044;-68
2022/11/24 05:27:26;;;;;;;39.47;5.10;;;;;;;8.48;91.67;100197.13;5092444;28;20066;-68
2022/11/24 05:29:52;;;;;;;37.13;4.70;;;;;;;8.40;91.78;100193.44;5094590;28;20105;-67
2022/11/24 05:32:19;;;;;;;32.08;5.57;;;;;;;8.33;91.98;100208.25;5096218;28;20050;-68
2022/11/24 05:34:46;;;;;;;38.05;4.45;;;;;;;8.39;92.43;100212.09;5096053;28;20085;-68
2022/11/24 05:37:13;;;;;;;36.10;4.43;;;;;;;8.36;92.15;100212.38;5095997;28;20489;-68
2022/11/24 05:39:40;;;;;;;35.90;5.05;;;;;;;8.41;92.30;100216.22;5096017;28;20048;-68
2022/11/24 05:44:53;;;;;;;41.55;4.63;;;;;;;8.35;92.42;100222.13;5095545;28;20051;-68
2022/11/24 05:47:21;;;;;;;38.83;4.65;;;;;;;8.40;92.44;100219.88;5095771;28;20516;-67
2022/11/24 05:49:48;;;;;;;35.55;4.35;;;;;;;8.34;92.51;100223.09;5095953;28;20059;-67
2022/11/24 05:52:15;;;;;;;28.48;4.07;;;;;;;8.36;92.85;100222.94;5096054;28;20055;-67
2022/11/24 05:54:42;;;;;;;32.75;4.68;;;;;;;8.47;92.19;100235.13;5096153;28;20048;-67
2022/11/24 05:57:09;;;;;;;29.48;3.90;;;;;;;8.47;92.21;100238.59;5094143;28;20048;-68
2022/11/24 05:59:36;;;;;;;35.50;3.85;;;;;;;8.35;91.75;100242.41;5095919;28;20524;-68
2022/11/24 06:02:02;;;;;;;24.17;3.55;;;;;;;8.39;91.38;100246.44;5095323;28;20101;-69
2022/11/24 06:04:29;;;;;;;34.85;3.92;;;;;;;8.32;91.79;100253.31;5095658;28;20048;-68
2022/11/24 06:06:55;;;;;;;28.75;4.30;;;;;;;8.34;91.83;100254.81;5094829;28;20048;-66
2022/11/24 06:09:22;;;;;;;35.85;5.22;;;;;;;8.26;91.58;100255.56;5095721;28;20318;-68
2022/11/24 06:11:49;;;;;;;28.17;4.00;;;;;;;8.24;91.28;100252.25;5095697;28;20456;-68
2022/11/24 06:14:15;;;;;;;23.50;4.13;;;;;;;8.34;91.53;100248.72;5094923;28;20093;-68
2022/11/24 06:16:42;;;;;;;34.17;4.55;;;;;;;8.43;90.19;100256.56;5095802;28;20043;-68
2022/11/24 06:19:10;;;;;;;27.60;4.68;;;;;;;8.49;89.47;100256.97;5095154;28;20044;-67
2022/11/24 06:21:37;;;;;;;25.92;3.50;;;;;;;8.41;90.63;100262.97;5094969;28;20036;-67
2022/11/24 06:24:04;;;;;;;25.30;4.15;;;;;;;8.43;90.50;100267.16;5095334;28;20048;-67
2022/11/24 06:26:31;;;;;;;27.90;4.68;;;;;;;8.47;89.58;100280.06;5095395;28;20039;-67
2022/11/24 06:28:58;;;;;;;21.90;3.10;;;;;;;8.54;88.81;100279.31;5094982;28;20040;-67
2022/11/24 06:31:25;;;;;;;20.83;2.90;;;;;;;8.50;88.01;100277.13;5095217;28;20048;-67
2022/11/24 06:33:52;;;;;;;30.40;3.53;;;;;;;8.49;87.63;100284.22;5093772;28;20409;-67
2022/11/24 06:36:19;;;;;;;21.90;3.50;;;;;;;8.51;87.44;100294.66;5094913;28;20036;-67
2022/11/24 06:38:46;;;;;;;20.48;3.60;;;;;;;8.45;87.83;100299.53;5095198;28;20070;-68
2022/11/24 06:41:14;;;;;;;22.88;3.40;;;;;;;8.40;87.52;100291.22;5094385;28;20040;-68
2022/11/24 06:43:41;;;;;;;28.38;3.55;;;;;;;8.48;87.55;100298.44;5094880;28;20051;-68
2022/11/24 06:46:09;;;;;;;22.63;3.22;;;;;;;8.50;87.20;100301.75;5094722;28;20105;-68
2022/11/24 06:48:36;;;;;;;20.95;2.88;;;;;;;8.50;88.38;100307.03;5094728;28;20054;-68
2022/11/24 06:51:05;;;;;;;18.98;2.92;;;;;;;8.45;86.68;100304.00;5094477;28;20048;-69
2022/11/24 06:53:36;;;;;;;18.83;2.88;;;;;;;8.43;86.03;100311.25;5094515;28;20066;-68
2022/11/24 06:56:05;;;;;;;20.25;2.75;;;;;;;8.40;85.57;100306.25;5094599;28;20046;-68
2022/11/24 06:58:38;;;;;;;20.10;3.50;;;;;;;8.29;85.54;100309.09;5094479;28;20055;-68
2022/11/24 07:01:05;;;;;;;17.73;2.50;;;;;;;8.26;86.48;100323.47;5093910;28;20036;-68
2022/11/24 07:03:32;;;;;;;13.63;2.22;;;;;;;8.19;85.91;100319.75;5094479;28;20126;-69
2022/11/24 07:05:59;;;;;;;12.70;1.90;;;;;;;8.10;85.78;100325.94;5093707;28;20043;-68
2022/11/24 07:08:26;;;;;;;10.35;1.90;;;;;;;8.20;86.00;100327.50;5076978;28;20043;-69
2022/11/24 07:10:53;;;;;;;15.35;2.38;;;;;;;8.18;85.59;100339.22;5073342;28;20036;-69
2022/11/24 07:13:20;;;;;;;11.70;1.88;;;;;;;8.10;85.52;100344.41;5073858;28;20135;-68
2022/11/24 07:15:47;;;;;;;6.90;1.65;;;;;;;8.03;85.81;100347.63;5073323;28;20086;-68
2022/11/24 07:18:14;;;;;;;11.57;2.10;;;;;;;8.00;85.29;100353.19;5072934;28;20045;-68
2022/11/24 07:20:41;;;;;;;14.60;1.95;;;;;;;7.97;86.78;100356.16;5071334;28;20618;-68
2022/11/24 07:23:08;;;;;;;8.70;2.00;;;;;;;8.06;85.25;100363.19;5080947;28;20048;-67
2022/11/24 07:25:34;;;;;;;8.20;2.00;;;;;;;7.99;86.14;100366.59;5093021;28;20028;-69
2022/11/24 07:28:01;;;;;;;6.75;1.73;;;;;;;8.02;86.23;100377.69;5089971;28;20505;-68
2022/11/24 07:30:28;;;;;;;10.23;1.90;;;;;;;8.06;86.47;100376.41;5090697;28;20182;-68
2022/11/24 07:32:59;;;;;;;9.60;1.98;;;;;;;8.00;85.51;100382.25;5087356;28;20462;-67
2022/11/24 07:35:27;;;;;;;9.13;2.07;;;;;;;8.03;85.91;100400.47;5089523;28;20101;-68
2022/11/24 07:37:57;;;;;;;9.50;1.98;;;;;;;8.12;85.79;100395.31;5078789;28;20032;-68
2022/11/24 07:40:25;;;;;;;10.60;2.00;;;;;;;8.16;86.00;100401.94;5088091;28;20055;-68
2022/11/24 07:42:53;;;;;;;9.23;2.13;;;;;;;8.05;84.82;100413.53;5092380;28;20460;-67
2022/11/24 07:45:24;;;;;;;12.85;2.50;;;;;;;8.11;85.66;100420.03;5092301;28;20105;-68
2022/11/24 07:47:51;;;;;;;8.55;1.60;;;;;;;8.10;84.85;100423.69;5093360;28;20050;-67
2022/11/24 07:50:19;;;;;;;6.63;1.60;;;;;;;8.24;84.54;100425.81;5092777;28;20481;-68
2022/11/24 07:52:46;;;;;;;8.02;1.70;;;;;;;8.11;85.79;100436.72;5089830;28;20130;-67
2022/11/24 07:55:12;;;;;;;8.20;1.60;;;;;;;8.12;86.22;100438.41;5084767;28;20477;-67
2022/11/24 07:57:40;;;;;;;8.85;1.65;;;;;;;8.17;85.32;100443.25;5028313;28;20042;-68
2022/11/24 08:00:07;;;;;;;11.80;2.92;;;;;;;8.12;86.42;100441.03;5082170;28;20044;-68
2022/11/24 08:02:34;;;;;;;12.55;2.20;;;;;;;8.16;85.95;100447.69;5087385;28;20131;-68
2022/11/24 08:05:01;;;;;;;11.80;2.25;;;;;;;8.08;86.47;100453.72;5059263;28;20378;-68
2022/11/24 08:07:28;;;;;;;9.15;2.10;;;;;;;8.12;87.07;100456.06;5086873;28;20101;-67
2022/11/24 08:09:54;;;;;;;10.35;1.80;;;;;;;8.19;85.95;100462.44;5086167;28;20088;-67
2022/11/24 08:12:21;;;;;;;15.10;2.30;;;;;;;8.21;86.85;100463.13;5036500;28;20055;-64
2022/11/24 08:14:49;;;;;;;16.85;4.43;;;;;;;8.34;86.21;100470.72;5051455;28;20059;-69
2022/11/24 08:17:16;;;;;;;13.23;2.42;;;;;;;8.30;86.18;100462.25;5090344;28;20044;-65
2022/11/24 08:19:43;;;;;;;8.60;2.08;;;;;;;8.35;85.97;100472.38;5037088;28;20076;-65
2022/11/24 08:22:10;;;;;;;11.80;2.22;;;;;;;8.32;86.72;100476.16;5086697;28;20074;-65
2022/11/24 08:24:37;;;;;;;13.23;2.55;;;;;;;8.29;87.27;100478.25;5087090;28;20048;-65
2022/11/24 08:27:04;;;;;;;13.32;2.42;;;;;;;8.24;87.11;100479.53;5075640;28;20332;-65
2022/11/24 08:29:30;;;;;;;13.07;2.08;;;;;;;8.23;87.81;100482.31;5080285;28;20051;-66
2022/11/24 08:31:58;;;;;;;9.40;2.00;;;;;;;8.28;87.56;100472.13;5065553;28;20051;-65
2022/11/24 08:34:25;;;;;;;14.52;2.45;;;;;;;8.35;87.41;100490.88;5078085;28;20481;-66
2022/11/24 08:36:53;;;;;;;14.57;2.38;;;;;;;8.41;87.69;100493.75;5087731;28;20060;-66
2022/11/24 08:39:20;;;;;;;18.83;3.83;;;;;;;8.57;86.57;100497.63;5092672;28;20048;-66
2022/11/24 08:41:46;;;;;;;22.27;4.55;;;;;;;8.75;86.29;100500.31;5087258;28;20101;-66
2022/11/24 08:44:16;;;;;;;16.33;2.83;;;;;;;8.86;85.57;100493.97;5079769;28;20051;-66
2022/11/24 08:46:44;;;;;;;16.38;2.90;;;;;;;8.79;86.23;100505.16;5085127;28;20036;-65
2022/11/24 08:49:13;;;;;;;15.43;2.92;;;;;;;8.83;86.02;100514.47;5090308;28;20048;-65
2022/11/24 08:51:41;;;;;;;15.98;2.55;;;;;;;8.73;86.67;100516.34;5090074;28;20048;-65
2022/11/24 08:54:12;;;;;;;14.43;2.55;;;;;;;8.69;86.72;100511.47;5082340;28;20113;-65
2022/11/24 08:56:39;;;;;;;22.58;2.75;;;;;;;8.68;86.89;100515.09;5089884;28;20040;-67
2022/11/24 08:59:06;;;;;;;15.75;2.75;;;;;;;8.62;86.97;100508.59;5064219;28;20040;-66
2022/11/24 09:01:33;;;;;;;17.73;3.00;;;;;;;8.58;87.49;100531.03;5091556;28;20036;-66
2022/11/24 09:04:00;;;;;;;20.05;3.22;;;;;;;8.60;87.46;100529.91;5088930;28;20043;-66
2022/11/24 09:06:29;;;;;;;17.20;2.85;;;;;;;8.71;86.77;100534.16;5104119;28;20040;-66
2022/11/24 09:08:56;;;;;;;15.80;2.85;;;;;;;8.72;87.17;100533.19;5090860;28;20048;-66
2022/11/24 09:11:24;;;;;;;15.23;2.60;;;;;;;8.81;86.62;100537.59;5094407;28;20113;-66
2022/11/24 09:13:52;;;;;;;17.98;3.00;;;;;;;8.87;86.16;100549.38;5081820;28;20039;-65
2022/11/24 09:16:22;;;;;;;22.55;3.00;;;;;;;8.87;86.30;100544.09;5094180;28;20062;-65
2022/11/24 09:18:59;;;;;;;13.45;2.40;;;;;;;8.80;85.95;100550.94;5070295;28;20044;-65
2022/11/24 09:21:27;;;;;;;15.50;3.10;;;;;;;8.83;86.63;100551.50;5083847;28;20132;-66
2022/11/24 09:23:54;;;;;;;20.45;3.00;;;;;;;8.83;86.05;100556.78;5078991;28;20035;-65
2022/11/24 09:26:25;;;;;;;18.25;2.60;;;;;;;8.82;86.37;100559.56;5081676;28;20135;-65
2022/11/24 09:28:53;;;;;;;12.95;2.72;;;;;;;8.87;86.39;100572.38;5069423;28;20048;-66
2022/11/24 09:31:24;;;;;;;17.33;2.95;;;;;;;8.83;85.85;100564.72;5070512;28;20521;-65
2022/11/24 09:33:52;;;;;;;23.50;4.03;;;;;;;8.80;86.09;100577.41;5059788;28;20070;-65
2022/11/24 09:36:19;;;;;;;15.52;3.08;;;;;;;8.95;86.25;100585.69;5088193;28;20032;-65
2022/11/24 09:38:46;;;;;;;19.75;2.97;;;;;;;9.02;85.59;100581.47;5090124;28;21293;-65
2022/11/24 09:41:25;;;;;;;18.10;3.50;;;;;;;9.31;84.70;100586.56;5080534;28;20041;-65
2022/11/24 09:44:32;;;;;;;18.63;3.03;;;;;;;9.16;84.98;100593.38;5071250;28;20119;-65
2022/11/24 09:47:15;;;;;;;16.83;3.83;;;;;;;9.22;84.71;100598.91;5086122;28;20048;-65
2022/11/24 09:49:49;;;;;;;19.00;3.35;;;;;;;9.19;84.99;100593.91;5094461;28;20059;-65
2022/11/24 09:52:25;;;;;;;19.48;3.10;;;;;;;9.18;84.77;100610.75;5086402;28;20630;-66
2022/11/24 09:54:57;;;;;;;27.48;4.03;;;;;;;9.16;83.97;100607.44;5090319;28;20132;-65
2022/11/24 09:57:28;;;;;;;22.17;2.88;;;;;;;9.26;84.43;100602.09;5090283;28;20044;-65
2022/11/24 10:00:03;;;;;;;16.20;3.40;;;;;;;9.40;83.41;100603.38;5072306;28;20043;-65
2022/11/24 10:02:39;;;;;;;20.23;2.90;;;;;;;9.39;83.71;100602.56;5093348;28;20097;-65
2022/11/24 10:05:07;;;;;;;24.90;3.28;;;;;;;9.34;83.97;100610.13;5082731;28;20071;-65
2022/11/24 10:07:43;;;;;;;23.75;2.78;;;;;;;9.32;83.82;100617.38;5091135;28;20044;-65
2022/11/24 10:10:16;;;;;;;14.02;2.75;;;;;;;9.40;83.69;100611.31;5078076;28;20497;-66
2022/11/24 10:13:19;;;;;;;17.20;2.55;;;;;;;9.31;83.34;100613.03;5092727;28;20040;-65
2022/11/24 10:18:51;;;;;;;17.70;2.40;;;;;;;9.45;82.30;100629.44;5042941;28;20404;-65
2022/11/24 10:21:46;;;;;;;15.20;2.40;;;;;;;9.39;82.47;100631.69;5043906;28;20041;-67
2022/11/24 10:27:35;;;;;;;16.25;2.55;;;;;;;9.54;82.62;100641.78;5098513;27;20463;-66
2022/11/24 10:30:12;;;;;;;18.98;2.88;;;;;;;9.71;82.25;100642.75;5061731;28;20045;-66
2022/11/24 10:32:44;;;;;;;18.40;2.33;;;;;;;9.76;81.56;100628.06;5050814;28;20041;-66
2022/11/24 10:35:37;;;;;;;19.33;3.20;;;;;;;9.82;80.54;100645.19;5076828;28;20367;-66
2022/11/24 10:38:33;;;;;;;15.70;3.45;;;;;;;9.86;80.38;100643.91;5078413;28;20059;-66
2022/11/24 10:41:12;;;;;;;23.35;3.67;;;;;;;10.19;79.17;100644.19;5076042;28;20063;-66
2022/11/24 10:43:40;;;;;;;18.05;2.30;;;;;;;10.42;77.75;100646.34;5086465;28;20048;-66
2022/11/24 10:46:14;;;;;;;23.25;3.28;;;;;;;11.45;73.59;100647.19;5078803;28;20071;-66
2022/11/24 10:48:48;;;;;;;18.40;3.03;;;;;;;13.56;65.65;100657.91;5088422;28;20135;-66
2022/11/24 10:51:35;;;;;;;19.48;2.63;;;;;;;14.49;61.37;100656.03;5083242;28;20044;-66
2022/11/24 10:54:16;;;;;;;19.48;3.22;;;;;;;14.40;61.51;100674.75;5089891;28;20500;-66
2022/11/24 10:56:45;;;;;;;17.73;2.70;;;;;;;13.66;62.97;100673.66;5090226;28;20067;-66
2022/11/24 11:01:59;;;;;;;16.75;3.53;;;;;;;15.10;57.11;100671.94;5070045;27;20717;-66
2022/11/24 11:04:33;;;;;;;18.35;2.85;;;;;;;14.21;61.18;100670.78;5083758;28;20131;-66
2022/11/24 11:07:17;;;;;;;23.10;2.80;;;;;;;15.56;57.25;100674.31;5080236;28;20048;-66
2022/11/24 11:09:46;;;;;;;15.73;2.30;;;;;;;16.03;53.69;100672.19;5071077;28;20041;-65
2022/11/24 11:12:22;;;;;;;24.88;3.35;;;;;;;15.98;54.89;100680.75;5076170;28;20044;-65
2022/11/24 11:15:29;;;;;;;18.35;2.78;;;;;;;15.48;54.57;100669.94;5082418;28;20093;-65
2022/11/24 11:17:59;;;;;;;13.18;2.55;;;;;;;16.09;53.28;100677.56;5080658;28;20043;-65
2022/11/24 11:20:30;;;;;;;16.10;2.60;;;;;;;16.11;54.13;100677.38;5092570;28;20045;-65
2022/11/24 11:23:02;;;;;;;24.05;3.55;;;;;;;16.05;53.51;100688.88;5076886;28;20040;-66
2022/11/24 11:25:31;;;;;;;;;;;;;;;16.33;52.75;100688.06;5075616;28;20401;-65
2022/11/24 11:28:27;;;;;;;25.00;3.40;;;;;;;17.03;50.58;100687.16;5071242;28;19939;-65
2022/11/24 11:30:59;;;;;;;21.60;3.78;;;;;;;16.75;51.67;100686.31;5059529;28;20048;-65
2022/11/24 11:33:54;;;;;;;21.77;3.40;;;;;;;16.50;52.60;100705.53;5052921;28;20051;-65
2022/11/24 11:36:31;;;;;;;18.85;2.92;;;;;;;15.88;53.43;100697.13;5064663;28;20053;-65
2022/11/24 11:38:58;;;;;;;28.38;3.28;;;;;;;14.51;57.62;100697.53;5071648;28;20045;-66
2022/11/24 11:41:32;;;;;;;23.20;3.40;;;;;;;14.76;58.00;100694.66;5080096;28;20047;-65
2022/11/24 11:44:14;;;;;;;20.83;3.20;;;;;;;14.55;58.46;100698.00;5080680;28;20445;-66
2022/11/24 11:46:42;;;;;;;26.92;3.22;;;;;;;13.89;59.81;100697.69;5075248;28;20047;-64
2022/11/24 11:49:12;;;;;;;21.77;2.88;;;;;;;13.30;61.08;100700.78;5057938;28;20071;-65